createdAt,value
2018-07-06T00:01:35.986Z,20.60
2018-07-06T00:04:29.779Z,20.50
2018-07-06T00:07:23.379Z,20.30
2018-07-06T00:10:21.518Z,20.20
2018-07-06T00:13:15.260Z,20.10
2018-07-06T00:16:09.163Z,20.10
2018-07-06T00:19:05.571Z,20.20
2018-07-06T00:21:59.453Z,20.20
2018-07-06T00:24:53.843Z,20.20
2018-07-06T00:27:47.586Z,20.00
2018-07-06T00:30:41.558Z,19.80
2018-07-06T00:33:35.452Z,19.60
2018-07-06T00:36:29.436Z,19.40
2018-07-06T00:39:23.222Z,19.30
2018-07-06T00:42:16.873Z,19.50
2018-07-06T00:45:17.026Z,19.60
2018-07-06T00:48:10.551Z,19.50
2018-07-06T00:51:04.594Z,19.40
2018-07-06T00:53:58.412Z,19.60
2018-07-06T00:56:52.234Z,19.70
2018-07-06T00:59:45.751Z,19.90
2018-07-06T01:02:39.826Z,19.90
2018-07-06T01:05:33.687Z,19.90
2018-07-06T01:08:27.971Z,19.90
2018-07-06T01:11:21.752Z,19.90
2018-07-06T01:14:15.660Z,19.90
2018-07-06T01:17:14.469Z,20.00
2018-07-06T01:20:09.288Z,20.00
2018-07-06T01:23:03.241Z,19.80
2018-07-06T01:25:57.031Z,19.60
2018-07-06T01:31:38.281Z,19.40
2018-07-06T01:34:32.316Z,19.50
2018-07-06T01:40:18.290Z,19.70
2018-07-06T01:43:12.050Z,19.70
2018-07-06T01:46:05.705Z,19.80
2018-07-06T01:48:59.562Z,19.80
2018-07-06T01:51:53.268Z,19.90
2018-07-06T01:54:47.072Z,20.00
2018-07-06T01:57:40.885Z,20.00
2018-07-06T02:00:34.991Z,20.00
2018-07-06T02:03:28.660Z,20.00
2018-07-06T02:06:22.249Z,20.10
2018-07-06T02:09:15.853Z,20.10
2018-07-06T02:12:09.411Z,20.10
2018-07-06T02:15:02.937Z,20.10
2018-07-06T02:17:56.759Z,20.10
2018-07-06T02:20:50.562Z,20.10
2018-07-06T02:23:44.326Z,20.10
2018-07-06T02:26:38.070Z,20.10
2018-07-06T02:29:31.861Z,20.10
2018-07-06T02:32:25.687Z,20.10
2018-07-06T02:35:20.082Z,20.20
2018-07-06T02:38:14.394Z,20.10
2018-07-06T02:41:08.036Z,20.00
2018-07-06T02:44:01.777Z,20.00
2018-07-06T02:46:55.954Z,20.00
2018-07-06T02:49:50.586Z,20.00
2018-07-06T02:52:44.437Z,20.10
2018-07-06T02:55:38.216Z,20.00
2018-07-06T02:58:31.973Z,19.90
2018-07-06T03:01:25.875Z,19.70
2018-07-06T03:04:19.603Z,19.50
2018-07-06T03:07:13.268Z,19.30
2018-07-06T03:10:07.992Z,19.10
2018-07-06T03:15:49.749Z,19.30
2018-07-06T03:18:43.477Z,19.50
2018-07-06T03:21:37.281Z,19.60
2018-07-06T03:24:31.621Z,19.70
2018-07-06T03:27:25.248Z,19.80
2018-07-06T03:30:20.038Z,20.00
2018-07-06T03:33:13.714Z,20.10
2018-07-06T03:36:07.413Z,20.20
2018-07-06T03:39:02.189Z,20.30
2018-07-06T03:41:55.777Z,20.30
2018-07-06T03:44:49.420Z,20.10
2018-07-06T03:47:43.083Z,19.90
2018-07-06T03:50:36.696Z,19.90
2018-07-06T03:53:30.578Z,19.80
2018-07-06T03:56:24.543Z,19.70
2018-07-06T03:59:18.218Z,19.70
2018-07-06T04:02:11.624Z,19.70
2018-07-06T04:05:05.217Z,19.80
2018-07-06T04:07:58.817Z,19.80
2018-07-06T04:10:52.459Z,19.90
2018-07-06T04:13:46.832Z,20.00
2018-07-06T04:16:40.373Z,20.00
2018-07-06T04:19:34.280Z,19.90
2018-07-06T04:22:27.954Z,19.80
2018-07-06T04:25:21.498Z,19.70
2018-07-06T04:28:15.173Z,19.80
2018-07-06T04:31:08.434Z,19.90
2018-07-06T04:36:50.873Z,19.80
2018-07-06T04:39:44.248Z,19.70
2018-07-06T04:42:37.745Z,19.90
2018-07-06T04:45:31.083Z,19.90
2018-07-06T04:48:24.642Z,20.10
2018-07-06T04:51:18.385Z,20.10
2018-07-06T04:54:11.839Z,20.10
2018-07-06T04:57:05.245Z,20.30
2018-07-06T04:59:58.856Z,20.60
2018-07-06T05:02:56.359Z,20.70
2018-07-06T05:05:49.766Z,20.90
2018-07-06T05:08:44.061Z,21.20
2018-07-06T05:11:37.487Z,21.20
2018-07-06T05:14:31.566Z,21.40
2018-07-06T05:17:25.084Z,21.50
2018-07-06T05:20:18.573Z,21.90
2018-07-06T05:23:12.117Z,21.90
2018-07-06T05:26:05.649Z,21.90
2018-07-06T05:28:59.222Z,22.00
2018-07-06T05:31:52.788Z,21.80
2018-07-06T05:34:46.107Z,21.80
2018-07-06T05:37:39.541Z,21.80
2018-07-06T05:40:33.249Z,22.30
2018-07-06T05:43:26.528Z,22.50
2018-07-06T05:46:19.999Z,22.90
2018-07-06T05:49:13.439Z,23.40
2018-07-06T05:52:10.546Z,23.80
2018-07-06T05:55:04.953Z,23.90
2018-07-06T05:57:58.732Z,23.50
2018-07-06T06:00:52.447Z,23.90
2018-07-06T06:03:47.029Z,23.90
2018-07-06T06:06:45.515Z,24.10
2018-07-06T06:12:02.825Z,24.40
2018-07-06T06:14:37.822Z,24.40
2018-07-06T06:17:11.786Z,24.10
2018-07-06T06:19:49.946Z,24.00
2018-07-06T06:22:22.649Z,24.70
2018-07-06T06:24:54.642Z,24.40
2018-07-06T06:27:26.347Z,25.30
2018-07-06T06:29:58.209Z,25.50
2018-07-06T06:32:30.006Z,25.10
2018-07-06T06:35:03.378Z,25.00
2018-07-06T06:37:34.930Z,25.10
2018-07-06T06:42:38.236Z,25.80
2018-07-06T06:45:09.781Z,25.80
2018-07-06T06:47:41.493Z,26.00
2018-07-06T06:50:13.636Z,26.30
2018-07-06T06:52:46.819Z,26.30
2018-07-06T06:55:23.585Z,26.40
2018-07-06T06:58:23.922Z,27.00
2018-07-06T07:01:14.201Z,26.90
2018-07-06T07:06:23.408Z,27.30
2018-07-06T07:09:00.170Z,27.60
2018-07-06T07:11:37.435Z,27.30
2018-07-06T07:14:08.989Z,27.20
2018-07-06T07:19:11.787Z,28.00
2018-07-06T07:21:45.268Z,28.30
2018-07-06T07:24:18.244Z,28.10
2018-07-06T07:26:49.855Z,28.50
2018-07-06T07:29:21.481Z,28.30
2018-07-06T07:31:53.476Z,28.60
2018-07-06T07:34:25.128Z,28.30
2018-07-06T07:36:56.807Z,28.40
2018-07-06T07:39:28.535Z,28.40
2018-07-06T07:42:00.143Z,28.60
2018-07-06T07:44:31.561Z,27.70
2018-07-06T07:47:03.192Z,28.00
2018-07-06T07:49:47.932Z,27.60
2018-07-06T07:52:35.408Z,28.40
2018-07-06T07:55:07.685Z,28.50
2018-07-06T07:57:39.330Z,28.50
2018-07-06T08:00:11.776Z,27.90
2018-07-06T08:02:43.541Z,26.70
2018-07-06T08:05:20.647Z,26.80
2018-07-06T08:07:52.550Z,26.90
2018-07-06T08:10:24.804Z,27.80
2018-07-06T08:12:56.780Z,29.10
2018-07-06T08:15:28.338Z,29.60
2018-07-06T08:18:00.485Z,28.90
2018-07-06T08:20:33.011Z,28.60
2018-07-06T08:23:04.761Z,29.20
2018-07-06T08:25:36.419Z,30.60
2018-07-06T08:28:08.106Z,31.40
2018-07-06T08:33:10.703Z,31.30
2018-07-06T08:35:58.410Z,31.50
2018-07-06T08:41:02.356Z,30.50
2018-07-06T08:43:34.029Z,30.60
2018-07-06T08:46:05.638Z,31.10
2018-07-06T08:48:37.303Z,31.60
2018-07-06T08:51:09.206Z,31.90
2018-07-06T08:56:12.000Z,31.30
2018-07-06T08:58:44.473Z,31.20
2018-07-06T09:01:16.375Z,32.20
2018-07-06T09:03:48.073Z,33.00
2018-07-06T09:06:19.890Z,32.20
2018-07-06T09:08:52.618Z,32.90
2018-07-06T09:11:25.003Z,33.10
2018-07-06T09:13:56.459Z,33.00
2018-07-06T09:16:27.874Z,33.20
2018-07-06T09:18:59.157Z,33.30
2018-07-06T09:21:30.805Z,32.20
2018-07-06T09:24:03.209Z,31.60
2018-07-06T09:26:35.254Z,31.90
2018-07-06T09:29:07.372Z,32.80
2018-07-06T09:31:39.288Z,32.40
2018-07-06T09:34:11.411Z,32.50
2018-07-06T09:36:42.889Z,32.10
2018-07-06T09:39:14.599Z,31.00
2018-07-06T09:41:45.999Z,29.60
2018-07-06T09:44:17.512Z,29.50
2018-07-06T09:46:49.294Z,29.20
2018-07-06T09:49:21.703Z,29.10
2018-07-06T09:51:53.528Z,29.70
2018-07-06T09:54:25.582Z,31.10
2018-07-06T09:56:57.017Z,32.00
2018-07-06T09:59:28.585Z,32.00
2018-07-06T10:01:59.997Z,31.40
2018-07-06T10:04:31.368Z,31.00
2018-07-06T10:07:10.856Z,31.30
2018-07-06T10:09:42.516Z,31.30
2018-07-06T10:12:14.114Z,31.00
2018-07-06T10:14:45.650Z,31.40
2018-07-06T10:19:47.819Z,31.70
2018-07-06T10:22:19.092Z,31.70
2018-07-06T10:25:00.824Z,32.00
2018-07-06T10:27:42.208Z,32.20
2018-07-06T10:30:30.630Z,32.80
2018-07-06T10:33:02.128Z,32.50
2018-07-06T10:35:33.558Z,32.90
2018-07-06T10:38:05.803Z,31.80
2018-07-06T10:40:37.126Z,32.80
2018-07-06T10:43:11.105Z,33.20
2018-07-06T10:45:42.722Z,33.70
2018-07-06T10:48:14.138Z,34.20
2018-07-06T10:50:45.472Z,34.60
2018-07-06T10:53:16.961Z,33.60
2018-07-06T10:55:48.196Z,33.20
2018-07-06T10:58:19.476Z,32.30
2018-07-06T11:00:50.842Z,31.80
2018-07-06T11:03:22.334Z,32.30
2018-07-06T11:05:53.587Z,33.10
2018-07-06T11:08:24.891Z,33.30
2018-07-06T11:10:56.324Z,33.40
2018-07-06T11:15:58.617Z,32.80
2018-07-06T11:18:36.528Z,33.40
2018-07-06T11:23:39.086Z,33.10
2018-07-06T11:26:11.059Z,32.90
2018-07-06T11:28:42.459Z,33.40
2018-07-06T11:31:14.235Z,33.70
2018-07-06T11:33:45.481Z,33.70
2018-07-06T11:36:16.792Z,33.70
2018-07-06T11:38:48.155Z,32.60
2018-07-06T11:41:19.506Z,32.80
2018-07-06T11:43:52.545Z,31.20
2018-07-06T11:46:24.042Z,30.30
2018-07-06T11:48:55.437Z,31.00
2018-07-06T11:51:26.915Z,31.40
2018-07-06T11:53:58.705Z,31.90
2018-07-06T11:56:30.130Z,31.90
2018-07-06T12:04:03.193Z,32.60
2018-07-06T12:06:34.624Z,32.80
2018-07-06T12:09:07.375Z,33.20
2018-07-06T12:14:11.484Z,34.60
2018-07-06T12:16:43.317Z,33.80
2018-07-06T12:19:14.868Z,32.10
2018-07-06T12:21:46.316Z,32.50
2018-07-06T12:24:17.839Z,33.10
2018-07-06T12:26:49.351Z,32.80
2018-07-06T12:29:21.765Z,32.60
2018-07-06T12:31:53.599Z,32.90
2018-07-06T12:34:25.059Z,32.60
2018-07-06T12:36:56.949Z,32.60
2018-07-06T12:39:28.696Z,31.70
2018-07-06T12:42:00.171Z,31.60
2018-07-06T12:44:31.568Z,31.20
2018-07-06T12:47:03.297Z,30.80
2018-07-06T12:49:36.307Z,31.30
2018-07-06T12:52:08.048Z,31.90
2018-07-06T12:57:44.265Z,32.60
2018-07-06T13:00:20.934Z,32.70
2018-07-06T13:02:52.731Z,32.90
2018-07-06T13:05:26.480Z,32.40
2018-07-06T13:08:16.409Z,32.50
2018-07-06T13:10:48.464Z,32.60
2018-07-06T13:13:21.466Z,32.60
2018-07-06T13:15:55.432Z,32.40
2018-07-06T13:18:27.171Z,32.50
2018-07-06T13:20:58.905Z,33.20
2018-07-06T13:23:33.342Z,33.10
2018-07-06T13:26:23.437Z,32.80
2018-07-06T13:29:13.624Z,32.70
2018-07-06T13:31:53.992Z,32.70
2018-07-06T13:34:26.131Z,32.60
2018-07-06T13:36:57.913Z,31.30
2018-07-06T13:39:35.516Z,30.50
2018-07-06T13:42:08.263Z,30.70
2018-07-06T13:44:42.582Z,29.90
2018-07-06T13:49:51.980Z,29.10
2018-07-06T13:52:28.592Z,28.90
2018-07-06T13:55:00.261Z,28.90
2018-07-06T13:57:32.058Z,28.90
2018-07-06T14:00:13.100Z,28.50
2018-07-06T14:05:28.236Z,28.80
2018-07-06T14:08:10.281Z,28.80
2018-07-06T14:10:48.226Z,28.50
2018-07-06T14:13:22.114Z,28.50
2018-07-06T14:15:53.978Z,28.40
2018-07-06T14:18:29.652Z,28.60
2018-07-06T14:21:02.313Z,28.70
2018-07-06T14:23:34.092Z,28.50
2018-07-06T14:26:20.187Z,28.40
2018-07-06T14:29:08.649Z,28.40
2018-07-06T14:31:46.800Z,28.10
2018-07-06T14:34:18.630Z,27.50
2018-07-06T14:39:58.533Z,26.50
2018-07-06T14:45:18.078Z,26.10
2018-07-06T14:48:07.526Z,26.00
2018-07-06T14:50:40.629Z,26.00
2018-07-06T14:53:21.585Z,26.20
2018-07-06T14:56:09.109Z,26.20
2018-07-06T14:58:41.167Z,26.40
2018-07-06T15:01:13.965Z,26.30
2018-07-06T15:03:45.660Z,26.20
2018-07-06T15:06:17.149Z,26.00
2018-07-06T15:08:49.398Z,25.70
2018-07-06T15:11:21.108Z,25.30
2018-07-06T15:13:52.957Z,25.10
2018-07-06T15:16:25.370Z,24.90
2018-07-06T15:19:02.505Z,24.80
2018-07-06T15:28:24.995Z,24.40
2018-07-06T15:31:06.322Z,24.20
2018-07-06T15:33:42.098Z,24.10
2018-07-06T15:36:14.931Z,24.00
2018-07-06T15:39:03.380Z,24.00
2018-07-06T15:45:33.736Z,23.60
2018-07-06T15:48:07.866Z,23.80
2018-07-06T15:50:41.693Z,23.90
2018-07-06T15:59:49.463Z,23.50
2018-07-06T16:02:21.306Z,23.10
2018-07-06T16:04:57.826Z,23.10
2018-07-06T16:07:30.679Z,22.90
2018-07-06T16:10:04.780Z,23.00
2018-07-06T16:13:00.542Z,22.70
2018-07-06T16:15:35.016Z,22.50
2018-07-06T16:18:07.984Z,22.70
2018-07-06T16:23:11.032Z,22.50
2018-07-06T16:25:57.049Z,22.50
2018-07-06T16:28:30.571Z,22.70
2018-07-06T16:31:03.223Z,22.90
2018-07-06T16:33:35.030Z,23.10
2018-07-06T16:36:14.104Z,23.30
2018-07-06T16:38:45.905Z,23.30
2018-07-06T16:41:20.681Z,23.20
2018-07-06T16:43:53.145Z,23.20
2018-07-06T16:46:24.896Z,23.00
2018-07-06T16:48:56.608Z,23.20
2018-07-06T16:51:29.707Z,23.20
2018-07-06T16:54:02.809Z,23.30
2018-07-06T16:56:35.758Z,23.30
2018-07-06T16:59:09.125Z,23.40
2018-07-06T17:01:40.786Z,23.40
2018-07-06T17:06:49.135Z,23.40
2018-07-06T17:15:45.906Z,23.50
2018-07-06T17:18:20.980Z,23.40
2018-07-06T17:20:52.808Z,23.10
2018-07-06T17:23:24.528Z,23.00
2018-07-06T17:25:57.126Z,22.90
2018-07-06T17:28:28.725Z,22.90
2018-07-06T17:31:00.411Z,22.90
2018-07-06T17:33:33.060Z,22.80
2018-07-06T17:36:08.685Z,22.90
2018-07-06T17:38:40.741Z,22.90
2018-07-06T17:41:28.819Z,23.00
2018-07-06T17:44:09.978Z,23.00
2018-07-06T17:46:43.190Z,23.00
2018-07-06T17:49:16.631Z,23.00
2018-07-06T17:51:54.419Z,23.10
2018-07-06T17:54:26.030Z,22.90
2018-07-06T17:56:57.816Z,22.80
2018-07-06T17:59:29.570Z,22.90
2018-07-06T18:02:02.993Z,23.10
2018-07-06T18:04:34.689Z,23.00
2018-07-06T18:07:06.425Z,22.90
2018-07-06T18:09:38.272Z,22.80
2018-07-06T18:12:10.879Z,22.70
2018-07-06T18:14:42.506Z,22.40
2018-07-06T18:17:15.924Z,22.40
2018-07-06T18:19:47.706Z,22.50
2018-07-06T18:22:23.368Z,22.50
2018-07-06T18:27:30.147Z,22.30
2018-07-06T18:30:01.535Z,22.20
2018-07-06T18:32:33.089Z,22.00
2018-07-06T18:35:04.503Z,21.80
2018-07-06T18:40:07.151Z,21.60
2018-07-06T18:42:38.686Z,21.40
2018-07-06T18:45:10.675Z,21.40
2018-07-06T18:47:42.295Z,21.30
2018-07-06T18:50:13.688Z,21.30
2018-07-06T18:52:45.262Z,21.30
2018-07-06T18:55:18.019Z,21.30
2018-07-06T18:57:49.328Z,21.30
2018-07-06T19:00:20.886Z,21.20
2018-07-06T19:02:52.739Z,21.30
2018-07-06T19:05:24.274Z,21.40
2018-07-06T19:07:56.406Z,21.30
2018-07-06T19:10:27.773Z,21.20
2018-07-06T19:12:59.112Z,21.10
2018-07-06T19:15:30.638Z,21.30
2018-07-06T19:18:02.149Z,21.40
2018-07-06T19:20:33.521Z,21.50
2018-07-06T19:23:04.997Z,21.50
2018-07-06T19:25:37.357Z,21.40
2018-07-06T19:31:20.685Z,21.30
2018-07-06T19:36:33.812Z,21.40
2018-07-06T19:39:05.759Z,21.30
2018-07-06T19:41:38.475Z,21.30
2018-07-06T19:44:14.542Z,21.20
2018-07-06T19:46:46.329Z,21.10
2018-07-06T19:49:17.780Z,21.00
2018-07-06T19:51:49.410Z,20.80
2018-07-06T19:56:53.522Z,20.70
2018-07-06T19:59:29.410Z,20.70
2018-07-06T20:02:01.276Z,20.70
2018-07-06T20:04:33.024Z,20.70
2018-07-06T20:07:04.735Z,20.60
2018-07-06T20:09:38.014Z,20.60
2018-07-06T20:24:00.243Z,20.30
2018-07-06T20:26:32.157Z,20.30
2018-07-06T20:29:03.688Z,20.40
2018-07-06T20:31:35.095Z,20.50
2018-07-06T20:34:07.436Z,20.40
2018-07-06T20:36:39.026Z,20.40
2018-07-06T20:39:11.273Z,20.30
2018-07-06T20:41:42.851Z,20.30
2018-07-06T20:44:14.382Z,19.80
